createdAt,value
2018-04-20T00:00:22.065Z,1010.83
2018-04-20T00:01:22.064Z,1010.79
2018-04-20T00:02:22.064Z,1010.81
2018-04-20T00:03:22.065Z,1010.79
2018-04-20T00:04:22.065Z,1010.78
2018-04-20T00:05:22.066Z,1010.77
2018-04-20T00:06:22.066Z,1010.73
2018-04-20T00:07:22.066Z,1010.74
2018-04-20T00:08:22.067Z,1010.73
2018-04-20T00:09:22.067Z,1010.74
2018-04-20T00:10:22.067Z,1010.70
2018-04-20T00:11:22.070Z,1010.71
2018-04-20T00:12:22.068Z,1010.73
2018-04-20T00:13:22.073Z,1010.72
2018-04-20T00:14:22.070Z,1010.73
2018-04-20T00:15:22.075Z,1010.69
2018-04-20T00:16:22.072Z,1010.71
2018-04-20T00:17:22.070Z,1010.69
2018-04-20T00:18:22.070Z,1010.68
2018-04-20T00:19:22.070Z,1010.68
2018-04-20T00:20:22.071Z,1010.68
2018-04-20T00:21:22.071Z,1010.63
2018-04-20T00:22:22.071Z,1010.68
2018-04-20T00:23:22.076Z,1010.65
2018-04-20T00:24:22.073Z,1010.66
2018-04-20T00:25:22.073Z,1010.64
2018-04-20T00:26:22.074Z,1010.64
2018-04-20T00:27:22.076Z,1010.62
2018-04-20T00:28:22.075Z,1010.63
2018-04-20T00:29:22.074Z,1010.61
2018-04-20T00:30:22.073Z,1010.56
2018-04-20T00:31:22.076Z,1010.57
2018-04-20T00:32:22.074Z,1010.59
2018-04-20T00:33:22.076Z,1010.60
2018-04-20T00:34:22.075Z,1010.59
2018-04-20T00:35:22.075Z,1010.59
2018-04-20T00:36:22.075Z,1010.57
2018-04-20T00:37:22.076Z,1010.52
2018-04-20T00:38:22.079Z,1010.50
2018-04-20T00:39:22.084Z,1010.52
2018-04-20T00:40:22.079Z,1010.48
2018-04-20T00:41:22.081Z,1010.47
2018-04-20T00:42:22.077Z,1010.47
2018-04-20T00:43:22.074Z,1010.48
2018-04-20T00:44:22.075Z,1010.47
2018-04-20T00:45:22.075Z,1010.47
2018-04-20T00:46:22.077Z,1010.47
2018-04-20T00:47:22.075Z,1010.44
2018-04-20T00:48:22.078Z,1010.45
2018-04-20T00:49:22.075Z,1010.45
2018-04-20T00:50:22.075Z,1010.46
2018-04-20T00:51:22.078Z,1010.44
2018-04-20T00:52:22.076Z,1010.47
2018-04-20T00:53:22.078Z,1010.46
2018-04-20T00:54:22.076Z,1010.40
2018-04-20T00:55:22.075Z,1010.39
2018-04-20T00:56:22.081Z,1010.41
2018-04-20T00:57:22.075Z,1010.37
2018-04-20T00:58:22.073Z,1010.36
2018-04-20T00:59:22.074Z,1010.37
2018-04-20T01:00:22.074Z,1010.34
2018-04-20T01:01:22.073Z,1010.36
2018-04-20T01:02:22.074Z,1010.39
2018-04-20T01:03:22.073Z,1010.45
2018-04-20T01:04:22.072Z,1010.42
2018-04-20T01:05:22.072Z,1010.39
2018-04-20T01:06:22.071Z,1010.35
2018-04-20T01:07:22.072Z,1010.34
2018-04-20T01:08:22.071Z,1010.37
2018-04-20T01:09:22.071Z,1010.36
2018-04-20T01:10:22.070Z,1010.33
2018-04-20T01:11:22.071Z,1010.34
2018-04-20T01:12:22.125Z,1010.34
2018-04-20T01:13:22.069Z,1010.34
2018-04-20T01:14:22.069Z,1010.38
2018-04-20T01:15:22.095Z,1010.36
2018-04-20T01:16:22.070Z,1010.40
2018-04-20T01:17:22.069Z,1010.34
2018-04-20T01:18:22.067Z,1010.41
2018-04-20T01:19:22.068Z,1010.35
2018-04-20T01:20:22.068Z,1010.35
2018-04-20T01:21:22.068Z,1010.33
2018-04-20T01:22:22.068Z,1010.34
2018-04-20T01:23:22.067Z,1010.33
2018-04-20T01:24:22.070Z,1010.32
2018-04-20T01:25:22.066Z,1010.33
2018-04-20T01:26:22.070Z,1010.36
2018-04-20T01:27:22.067Z,1010.34
2018-04-20T01:28:22.068Z,1010.29
2018-04-20T01:29:22.065Z,1010.30
2018-04-20T01:30:22.064Z,1010.30
2018-04-20T01:31:22.068Z,1010.25
2018-04-20T01:32:22.062Z,1010.26
2018-04-20T01:33:22.067Z,1010.31
2018-04-20T01:34:22.061Z,1010.30
2018-04-20T01:35:22.061Z,1010.31
2018-04-20T01:36:22.061Z,1010.29
2018-04-20T01:37:22.060Z,1010.32
2018-04-20T01:38:22.059Z,1010.30
2018-04-20T01:39:22.063Z,1010.32
2018-04-20T01:40:22.058Z,1010.32
2018-04-20T01:41:22.057Z,1010.27
2018-04-20T01:42:22.058Z,1010.28
2018-04-20T01:43:22.057Z,1010.29
2018-04-20T01:44:22.055Z,1010.28
2018-04-20T01:45:22.057Z,1010.32
2018-04-20T01:46:22.056Z,1010.30
2018-04-20T01:47:22.054Z,1010.27
2018-04-20T01:48:22.053Z,1010.26
2018-04-20T01:49:22.053Z,1010.30
2018-04-20T01:50:22.052Z,1010.30
2018-04-20T01:51:22.053Z,1010.27
2018-04-20T01:52:22.051Z,1010.28
2018-04-20T01:53:22.053Z,1010.29
2018-04-20T01:54:22.050Z,1010.27
2018-04-20T01:55:22.049Z,1010.25
2018-04-20T01:56:22.057Z,1010.22
2018-04-20T01:57:22.048Z,1010.22
2018-04-20T01:58:22.048Z,1010.22
2018-04-20T01:59:22.055Z,1010.24
2018-04-20T02:00:22.047Z,1010.22
2018-04-20T02:01:22.047Z,1010.22
2018-04-20T02:02:22.044Z,1010.21
2018-04-20T02:03:22.045Z,1010.15
2018-04-20T02:04:22.045Z,1010.16
2018-04-20T02:05:22.045Z,1010.16
2018-04-20T02:06:22.042Z,1010.16
2018-04-20T02:07:22.042Z,1010.19
2018-04-20T02:08:22.046Z,1010.18
2018-04-20T02:09:22.042Z,1010.14
2018-04-20T02:10:22.043Z,1010.11
2018-04-20T02:11:22.039Z,1010.14
2018-04-20T02:12:22.041Z,1010.11
2018-04-20T02:13:22.041Z,1010.10
2018-04-20T02:14:22.037Z,1010.14
2018-04-20T02:15:22.040Z,1010.16
2018-04-20T02:16:22.042Z,1010.09
2018-04-20T02:17:22.036Z,1010.07
2018-04-20T02:18:22.035Z,1010.07
2018-04-20T02:19:22.058Z,1010.06
2018-04-20T02:20:22.034Z,1010.10
2018-04-20T02:21:22.034Z,1010.10
2018-04-20T02:22:22.032Z,1010.08
2018-04-20T02:23:22.031Z,1010.02
2018-04-20T02:24:22.032Z,1010.08
2018-04-20T02:25:22.032Z,1010.08
2018-04-20T02:26:22.029Z,1010.05
2018-04-20T02:27:22.028Z,1010.08
2018-04-20T02:28:22.033Z,1010.06
2018-04-20T02:29:22.030Z,1010.05
2018-04-20T02:30:22.031Z,1010.06
2018-04-20T02:31:22.027Z,1010.02
2018-04-20T02:32:22.026Z,1010.06
2018-04-20T02:33:22.025Z,1010.00
2018-04-20T02:34:22.023Z,1010.04
2018-04-20T02:35:22.024Z,1010.01
2018-04-20T02:36:22.075Z,1010.02
2018-04-20T02:37:22.035Z,1010.00
2018-04-20T02:38:22.022Z,1010.03
2018-04-20T02:39:22.024Z,1009.95
2018-04-20T02:40:22.028Z,1009.99
2018-04-20T02:41:22.019Z,1009.98
2018-04-20T02:42:22.027Z,1009.99
2018-04-20T02:43:22.016Z,1009.99
2018-04-20T02:44:22.017Z,1009.96
2018-04-20T02:45:22.028Z,1009.95
2018-04-20T02:46:22.013Z,1009.97
2018-04-20T02:47:22.020Z,1009.99
2018-04-20T02:48:22.012Z,1009.98
2018-04-20T02:49:22.013Z,1009.95
2018-04-20T02:50:22.012Z,1009.95
2018-04-20T02:51:22.011Z,1009.98
2018-04-20T02:52:22.009Z,1009.93
2018-04-20T02:53:22.011Z,1009.99
2018-04-20T02:54:22.007Z,1009.97
2018-04-20T02:55:22.005Z,1009.96
2018-04-20T02:56:22.005Z,1009.96
2018-04-20T02:57:22.006Z,1009.95
2018-04-20T02:58:22.003Z,1009.96
2018-04-20T02:59:22.000Z,1009.92
2018-04-20T03:00:21.999Z,1009.96
2018-04-20T03:01:22.002Z,1009.88
2018-04-20T03:02:21.996Z,1009.92
2018-04-20T03:03:22.013Z,1009.91
2018-04-20T03:04:22.004Z,1009.88
2018-04-20T03:05:21.996Z,1009.91
2018-04-20T03:06:21.991Z,1009.90
2018-04-20T03:07:21.994Z,1009.88
2018-04-20T03:08:21.989Z,1009.88
2018-04-20T03:09:21.992Z,1009.89
2018-04-20T03:10:21.999Z,1009.93
2018-04-20T03:11:21.987Z,1009.87
2018-04-20T03:12:21.991Z,1009.86
2018-04-20T03:13:21.983Z,1009.88
2018-04-20T03:14:21.992Z,1009.87
2018-04-20T03:15:21.982Z,1009.86
2018-04-20T03:16:21.986Z,1009.84
2018-04-20T03:17:21.978Z,1009.85
2018-04-20T03:18:36.742Z,1009.84
2018-04-20T03:19:21.978Z,1009.85
2018-04-20T03:20:21.976Z,1009.87
2018-04-20T03:21:21.978Z,1009.85
2018-04-20T03:22:21.990Z,1009.84
2018-04-20T03:23:21.972Z,1009.87
2018-04-20T03:24:21.971Z,1009.87
2018-04-20T03:25:21.977Z,1009.90
2018-04-20T03:26:21.969Z,1009.86
2018-04-20T03:27:21.967Z,1009.84
2018-04-20T03:28:21.968Z,1009.86
2018-04-20T03:29:21.964Z,1009.86
2018-04-20T03:30:21.980Z,1009.79
2018-04-20T03:31:21.961Z,1009.82
2018-04-20T03:32:21.960Z,1009.85
2018-04-20T03:33:21.959Z,1009.81
2018-04-20T03:34:21.955Z,1009.80
2018-04-20T03:35:21.954Z,1009.83
2018-04-20T03:36:21.952Z,1009.79
2018-04-20T03:37:21.953Z,1009.81
2018-04-20T03:38:21.948Z,1009.79
2018-04-20T03:39:21.981Z,1009.78
2018-04-20T03:40:21.946Z,1009.80
2018-04-20T03:41:21.945Z,1009.80
2018-04-20T03:42:21.943Z,1009.78
2018-04-20T03:43:21.943Z,1009.77
2018-04-20T03:44:21.943Z,1009.77
2018-04-20T03:45:21.939Z,1009.75
2018-04-20T03:46:21.946Z,1009.78
2018-04-20T03:47:21.935Z,1009.73
2018-04-20T03:48:21.934Z,1009.72
2018-04-20T03:49:21.932Z,1009.75
2018-04-20T03:50:21.930Z,1009.74
2018-04-20T03:51:21.928Z,1009.71
2018-04-20T03:52:21.927Z,1009.71
2018-04-20T03:53:21.925Z,1009.70
2018-04-20T03:54:21.925Z,1009.73
2018-04-20T03:55:21.923Z,1009.69
2018-04-20T03:56:21.976Z,1009.72
2018-04-20T03:57:21.919Z,1009.72
2018-04-20T03:58:21.917Z,1009.69
2018-04-20T03:59:21.919Z,1009.69
2018-04-20T04:00:21.919Z,1009.69
2018-04-20T04:01:21.913Z,1009.69
2018-04-20T04:02:21.911Z,1009.66
2018-04-20T04:03:21.911Z,1009.68
2018-04-20T04:04:21.908Z,1009.68
2018-04-20T04:05:21.907Z,1009.71
2018-04-20T04:06:21.905Z,1009.72
2018-04-20T04:07:21.903Z,1009.67
2018-04-20T04:08:21.901Z,1009.69
2018-04-20T04:09:21.910Z,1009.72
2018-04-20T04:10:21.898Z,1009.68
2018-04-20T04:11:21.899Z,1009.67
2018-04-20T04:12:21.929Z,1009.67
2018-04-20T04:13:21.894Z,1009.72
2018-04-20T04:14:21.892Z,1009.73
2018-04-20T04:15:21.902Z,1009.75
2018-04-20T04:16:21.890Z,1009.73
2018-04-20T04:17:21.888Z,1009.76
2018-04-20T04:18:21.885Z,1009.78
2018-04-20T04:19:21.886Z,1009.80
2018-04-20T04:20:21.883Z,1009.79
2018-04-20T04:21:21.882Z,1009.79
2018-04-20T04:22:21.878Z,1009.77
2018-04-20T04:23:21.877Z,1009.74
2018-04-20T04:24:21.877Z,1009.74
2018-04-20T04:25:21.874Z,1009.77
2018-04-20T04:26:21.922Z,1009.73
2018-04-20T04:27:21.870Z,1009.72
2018-04-20T04:28:21.874Z,1009.74
2018-04-20T04:29:21.874Z,1009.74
2018-04-20T04:30:21.865Z,1009.73
2018-04-20T04:31:21.864Z,1009.74
2018-04-20T04:32:21.875Z,1009.70
2018-04-20T04:33:21.860Z,1009.71
2018-04-20T04:34:21.861Z,1009.74
2018-04-20T04:35:21.857Z,1009.74
2018-04-20T04:36:21.860Z,1009.73
2018-04-20T04:37:21.853Z,1009.78
2018-04-20T04:38:21.859Z,1009.78
2018-04-20T04:39:21.849Z,1009.79
2018-04-20T04:40:21.879Z,1009.81
2018-04-20T04:41:21.851Z,1009.81
2018-04-20T04:42:21.844Z,1009.84
2018-04-20T04:43:21.869Z,1009.85
2018-04-20T04:44:21.841Z,1009.87
2018-04-20T04:45:21.841Z,1009.86
2018-04-20T04:46:21.838Z,1009.88
2018-04-20T04:47:21.836Z,1009.85
2018-04-20T04:48:21.847Z,1009.86
2018-04-20T04:49:21.833Z,1009.85
2018-04-20T04:50:21.833Z,1009.87
2018-04-20T04:51:21.831Z,1009.84
2018-04-20T04:52:21.830Z,1009.87
2018-04-20T04:53:21.828Z,1009.88
2018-04-20T04:54:21.824Z,1009.85
2018-04-20T04:55:21.823Z,1009.85
2018-04-20T04:56:21.825Z,1009.86
2018-04-20T04:57:21.821Z,1009.83
2018-04-20T04:58:21.825Z,1009.82
2018-04-20T04:59:21.831Z,1009.86
2018-04-20T05:00:21.816Z,1009.80
2018-04-20T05:01:21.817Z,1009.82
2018-04-20T05:02:21.818Z,1009.85
2018-04-20T05:03:21.812Z,1009.82
2018-04-20T05:04:21.811Z,1009.83
2018-04-20T05:05:21.810Z,1009.83
2018-04-20T05:06:21.831Z,1009.82
2018-04-20T05:07:21.808Z,1009.81
2018-04-20T05:08:21.806Z,1009.81
2018-04-20T05:09:21.805Z,1009.78
2018-04-20T05:10:21.803Z,1009.80
2018-04-20T05:11:21.802Z,1009.78
2018-04-20T05:12:21.802Z,1009.79
2018-04-20T05:13:21.803Z,1009.80
2018-04-20T05:14:21.801Z,1009.83
2018-04-20T05:15:21.802Z,1009.78
2018-04-20T05:16:21.797Z,1009.79
2018-04-20T05:17:21.796Z,1009.79
2018-04-20T05:18:21.796Z,1009.76
2018-04-20T05:19:21.849Z,1009.74
2018-04-20T05:20:21.793Z,1009.77
2018-04-20T05:21:21.804Z,1009.79
2018-04-20T05:22:21.792Z,1009.81
2018-04-20T05:23:21.794Z,1009.83
2018-04-20T05:24:21.792Z,1009.83
2018-04-20T05:25:21.829Z,1009.82
2018-04-20T05:26:21.788Z,1009.82
2018-04-20T05:27:21.791Z,1009.80
2018-04-20T05:28:21.787Z,1009.85
2018-04-20T05:29:21.786Z,1009.81
2018-04-20T05:30:21.786Z,1009.83
2018-04-20T05:31:21.795Z,1009.82
2018-04-20T05:32:21.784Z,1009.82
2018-04-20T05:33:21.786Z,1009.83
2018-04-20T05:34:21.782Z,1009.84
2018-04-20T05:35:21.785Z,1009.85
2018-04-20T05:36:21.794Z,1009.86
2018-04-20T05:37:21.782Z,1009.86
2018-04-20T05:38:21.783Z,1009.87
2018-04-20T05:39:21.780Z,1009.84
2018-04-20T05:40:21.780Z,1009.88
2018-04-20T05:41:21.781Z,1009.86
2018-04-20T05:42:21.779Z,1009.85
2018-04-20T05:43:21.779Z,1009.85
2018-04-20T05:44:21.779Z,1009.87
2018-04-20T05:45:21.781Z,1009.87
2018-04-20T05:46:21.781Z,1009.85
2018-04-20T05:47:21.784Z,1009.87
2018-04-20T05:48:21.782Z,1009.88
2018-04-20T05:49:21.782Z,1009.87
2018-04-20T05:50:21.778Z,1009.87
2018-04-20T05:51:21.779Z,1009.87
2018-04-20T05:52:21.779Z,1009.88
2018-04-20T05:53:21.780Z,1009.87
2018-04-20T05:54:21.780Z,1009.85
2018-04-20T05:55:21.780Z,1009.84
2018-04-20T05:56:21.777Z,1009.84
2018-04-20T05:57:21.777Z,1009.88
2018-04-20T05:58:21.783Z,1009.86
2018-04-20T05:59:21.777Z,1009.87
2018-04-20T06:00:21.776Z,1009.84
2018-04-20T06:01:21.835Z,1009.89
2018-04-20T06:02:21.778Z,1009.87
2018-04-20T06:03:21.776Z,1009.84
2018-04-20T06:04:21.778Z,1009.85
2018-04-20T06:05:21.779Z,1009.85
2018-04-20T06:06:21.775Z,1009.88
2018-04-20T06:07:21.775Z,1009.88
2018-04-20T06:08:21.776Z,1009.90
2018-04-20T06:09:21.781Z,1009.87
2018-04-20T06:10:21.806Z,1009.83
2018-04-20T06:11:21.776Z,1009.85
2018-04-20T06:12:21.774Z,1009.86
2018-04-20T06:13:21.775Z,1009.84
2018-04-20T06:14:21.773Z,1009.81
2018-04-20T06:15:21.775Z,1009.84
2018-04-20T06:16:21.776Z,1009.84
2018-04-20T06:17:21.774Z,1009.84
2018-04-20T06:18:21.778Z,1009.79
2018-04-20T06:19:21.773Z,1009.79
2018-04-20T06:20:21.821Z,1009.78
2018-04-20T06:21:21.835Z,1009.79
2018-04-20T06:22:21.774Z,1009.74
2018-04-20T06:23:21.774Z,1009.76
2018-04-20T06:24:21.772Z,1009.75
2018-04-20T06:25:21.771Z,1009.75
2018-04-20T06:26:21.816Z,1009.72
2018-04-20T06:27:21.774Z,1009.68
2018-04-20T06:28:21.778Z,1009.73
2018-04-20T06:29:21.771Z,1009.70
2018-04-20T06:30:21.769Z,1009.69
2018-04-20T06:31:21.772Z,1009.72
2018-04-20T06:32:21.775Z,1009.70
2018-04-20T06:33:21.770Z,1009.72
2018-04-20T06:34:21.768Z,1009.74
2018-04-20T06:35:21.846Z,1009.72
2018-04-20T06:36:21.984Z,1009.69
2018-04-20T06:37:21.770Z,1009.71
2018-04-20T06:38:21.842Z,1009.69
2018-04-20T06:39:21.832Z,1009.69
2018-04-20T06:40:21.767Z,1009.70
2018-04-20T06:41:21.824Z,1009.72
2018-04-20T06:42:21.765Z,1009.72
2018-04-20T06:43:21.765Z,1009.68
2018-04-20T06:44:21.768Z,1009.74
2018-04-20T06:45:21.767Z,1009.73
2018-04-20T06:46:21.767Z,1009.67
2018-04-20T06:47:21.772Z,1009.72
2018-04-20T06:48:21.764Z,1009.72
2018-04-20T06:49:21.874Z,1009.71
2018-04-20T06:50:21.764Z,1009.72
2018-04-20T06:51:21.766Z,1009.72
2018-04-20T06:52:21.831Z,1009.73
2018-04-20T06:53:21.763Z,1009.71
2018-04-20T06:54:21.780Z,1009.70
2018-04-20T06:55:21.762Z,1009.76
2018-04-20T06:56:21.762Z,1009.73
2018-04-20T06:57:21.761Z,1009.71
2018-04-20T06:58:21.762Z,1009.71
2018-04-20T06:59:21.761Z,1009.73
2018-04-20T07:00:21.764Z,1009.68
2018-04-20T07:01:21.762Z,1009.75
2018-04-20T07:02:21.761Z,1009.74
2018-04-20T07:03:21.762Z,1009.71
2018-04-20T07:04:21.774Z,1009.70
2018-04-20T07:05:21.762Z,1009.67
2018-04-20T07:06:21.761Z,1009.64
2018-04-20T07:07:21.780Z,1009.68
2018-04-20T07:08:21.764Z,1009.66
2018-04-20T07:09:21.762Z,1009.61
2018-04-20T07:10:21.761Z,1009.64
2018-04-20T07:11:21.767Z,1009.65
2018-04-20T07:12:21.764Z,1009.64
2018-04-20T07:13:21.764Z,1009.57
2018-04-20T07:14:21.767Z,1009.61
2018-04-20T07:15:21.763Z,1009.59
2018-04-20T07:16:21.763Z,1009.59
2018-04-20T07:17:21.764Z,1009.57
2018-04-20T07:18:21.762Z,1009.55
2018-04-20T07:19:21.766Z,1009.54
2018-04-20T07:20:21.801Z,1009.59
2018-04-20T07:21:21.765Z,1009.56
2018-04-20T07:22:21.767Z,1009.58
2018-04-20T07:23:21.772Z,1009.55
2018-04-20T07:24:21.766Z,1009.57
2018-04-20T07:25:21.771Z,1009.52
2018-04-20T07:26:21.767Z,1009.50
2018-04-20T07:27:21.771Z,1009.51
2018-04-20T07:28:21.768Z,1009.47
2018-04-20T07:29:21.772Z,1009.45
2018-04-20T07:30:21.777Z,1009.51
2018-04-20T07:31:21.770Z,1009.47
2018-04-20T07:32:21.776Z,1009.44
2018-04-20T07:33:21.772Z,1009.42
2018-04-20T07:34:21.775Z,1009.39
2018-04-20T07:35:21.781Z,1009.40
2018-04-20T07:36:21.794Z,1009.37
2018-04-20T07:37:21.778Z,1009.41
2018-04-20T07:38:21.776Z,1009.39
2018-04-20T07:39:21.790Z,1009.35
2018-04-20T07:40:21.781Z,1009.39
2018-04-20T07:41:21.845Z,1009.36
2018-04-20T07:42:21.797Z,1009.35
2018-04-20T07:43:21.790Z,1009.35
2018-04-20T07:44:21.788Z,1009.33
2018-04-20T07:45:21.797Z,1009.36
2018-04-20T07:46:21.818Z,1009.35
2018-04-20T07:47:21.788Z,1009.34
2018-04-20T07:48:21.814Z,1009.28
2018-04-20T07:49:21.794Z,1009.29
2018-04-20T07:50:21.845Z,1009.28
2018-04-20T07:51:21.791Z,1009.26
2018-04-20T07:52:21.797Z,1009.31
2018-04-20T07:53:21.811Z,1009.30
2018-04-20T07:54:21.802Z,1009.30
2018-04-20T07:55:21.798Z,1009.26
2018-04-20T07:56:21.801Z,1009.28
2018-04-20T07:57:21.799Z,1009.25
2018-04-20T07:58:21.803Z,1009.22
2018-04-20T07:59:21.803Z,1009.23
2018-04-20T08:00:21.817Z,1009.22
2018-04-20T08:01:21.807Z,1009.20
2018-04-20T08:02:21.811Z,1009.23
2018-04-20T08:03:21.813Z,1009.20
2018-04-20T08:04:21.817Z,1009.17
2018-04-20T08:05:21.814Z,1009.16
2018-04-20T08:06:21.814Z,1009.18
2018-04-20T08:07:21.814Z,1009.13
2018-04-20T08:08:21.847Z,1009.14
2018-04-20T08:09:21.960Z,1009.12
2018-04-20T08:10:21.819Z,1009.09
2018-04-20T08:11:21.823Z,1009.09
2018-04-20T08:12:21.841Z,1009.09
2018-04-20T08:13:21.827Z,1009.06
2018-04-20T08:14:21.835Z,1009.06
2018-04-20T08:15:21.828Z,1009.08
2018-04-20T08:16:21.835Z,1009.06
2018-04-20T08:17:26.468Z,1009.07
2018-04-20T08:18:21.837Z,1009.02
2018-04-20T08:20:16.306Z,1009.07
2018-04-20T08:21:16.219Z,1009.06
2018-04-20T08:23:12.867Z,1009.04
2018-04-20T08:24:10.601Z,1009.03
2018-04-20T08:25:10.605Z,1008.99
2018-04-20T08:26:10.610Z,1009.01
2018-04-20T08:27:10.614Z,1009.05
2018-04-20T08:28:10.612Z,1008.99
2018-04-20T08:29:10.616Z,1008.98
2018-04-20T08:30:10.621Z,1008.97
2018-04-20T08:31:10.618Z,1008.97
2018-04-20T08:32:10.627Z,1008.98
2018-04-20T08:33:10.626Z,1008.96
2018-04-20T08:34:10.665Z,1008.97
2018-04-20T08:35:10.629Z,1008.99
2018-04-20T08:36:11.032Z,1008.94
2018-04-20T08:37:10.832Z,1008.94
2018-04-20T08:38:10.636Z,1008.97
2018-04-20T08:39:10.679Z,1008.97
2018-04-20T08:40:13.324Z,1008.92
2018-04-20T08:41:10.646Z,1008.93
2018-04-20T08:43:06.246Z,1008.90
2018-04-20T08:44:05.540Z,1008.90
2018-04-20T08:45:59.970Z,1008.86
2018-04-20T08:47:00.047Z,1008.87
2018-04-20T08:48:54.300Z,1008.86
2018-04-20T08:49:54.299Z,1008.83
2018-04-20T08:51:48.802Z,1008.89
2018-04-20T08:52:48.688Z,1008.90
2018-04-20T08:54:44.065Z,1008.82
2018-04-20T08:55:43.084Z,1008.82
2018-04-20T08:57:37.763Z,1008.78
2018-04-20T08:58:37.642Z,1008.80
2018-04-20T09:00:32.036Z,1008.80
2018-04-20T09:01:32.129Z,1008.81
2018-04-20T09:03:26.501Z,1008.80
2018-04-20T09:04:26.419Z,1008.83
2018-04-20T09:06:20.822Z,1008.80
2018-04-20T09:07:20.807Z,1008.81
2018-04-20T09:09:15.234Z,1008.79
2018-04-20T09:10:15.195Z,1008.77
2018-04-20T09:12:09.585Z,1008.72
2018-04-20T09:13:09.623Z,1008.73
2018-04-20T09:15:04.210Z,1008.73
2018-04-20T09:16:04.690Z,1008.72
2018-04-20T09:17:58.464Z,1008.64
2018-04-20T09:18:58.372Z,1008.68
2018-04-20T09:20:52.797Z,1008.66
2018-04-20T09:21:52.761Z,1008.58
2018-04-20T09:23:47.166Z,1008.57
2018-04-20T09:24:47.167Z,1008.53
2018-04-20T09:26:41.602Z,1008.54
2018-04-20T09:27:41.557Z,1008.51
2018-04-20T09:29:36.042Z,1008.52
2018-04-20T09:30:35.959Z,1008.53
2018-04-20T09:32:30.344Z,1008.48
2018-04-20T09:33:30.346Z,1008.48
2018-04-20T09:35:24.791Z,1008.46
2018-04-20T09:36:24.733Z,1008.46
2018-04-20T09:38:19.124Z,1008.39
2018-04-20T09:39:19.124Z,1008.36
2018-04-20T09:41:13.578Z,1008.38
2018-04-20T09:42:13.524Z,1008.39
2018-04-20T09:44:07.944Z,1008.32
2018-04-20T09:45:07.946Z,1008.34
2018-04-20T09:47:02.484Z,1008.33
2018-04-20T09:48:02.348Z,1008.31
2018-04-20T09:49:58.680Z,1008.31
2018-04-20T09:50:58.071Z,1008.32
2018-04-20T09:52:53.303Z,1008.31
2018-04-20T09:53:52.527Z,1008.33
2018-04-20T09:55:46.912Z,1008.24
2018-04-20T09:56:46.864Z,1008.26
2018-04-20T09:58:41.302Z,1008.31
2018-04-20T09:59:41.255Z,1008.24
2018-04-20T10:01:35.636Z,1008.25
2018-04-20T10:02:35.632Z,1008.21
2018-04-20T10:04:30.240Z,1008.22
2018-04-20T10:05:30.146Z,1008.21
2018-04-20T10:07:24.532Z,1008.19
2018-04-20T10:08:24.539Z,1008.18
2018-04-20T10:10:18.968Z,1008.18
2018-04-20T10:11:18.921Z,1008.13
2018-04-20T10:13:13.358Z,1008.12
2018-04-20T10:14:13.312Z,1008.11
2018-04-20T10:16:07.703Z,1008.10
2018-04-20T10:17:07.708Z,1008.08
2018-04-20T10:19:07.565Z,1008.05
2018-04-20T10:20:06.738Z,1008.08
2018-04-20T10:22:01.135Z,1008.02
2018-04-20T10:23:01.135Z,1008.02
2018-04-20T10:24:55.743Z,1008.05
2018-04-20T10:25:55.626Z,1008.06
2018-04-20T10:27:50.085Z,1007.99
2018-04-20T10:28:50.081Z,1007.98
2018-04-20T10:30:44.464Z,1008.00
2018-04-20T10:31:44.426Z,1007.98
2018-04-20T10:33:38.840Z,1007.99
2018-04-20T10:34:38.797Z,1007.95
2018-04-20T10:36:33.350Z,1007.98
2018-04-20T10:37:33.208Z,1007.95
2018-04-20T10:39:27.598Z,1007.91
2018-04-20T10:40:27.606Z,1007.88
2018-04-20T10:42:22.518Z,1007.83
2018-04-20T10:43:21.996Z,1007.79
2018-04-20T10:45:16.387Z,1007.82
2018-04-20T10:46:16.389Z,1007.82
2018-04-20T10:48:10.838Z,1007.80
2018-04-20T10:49:10.785Z,1007.82
2018-04-20T10:51:05.174Z,1007.81
2018-04-20T10:52:05.187Z,1007.82
2018-04-20T10:53:59.617Z,1007.82
2018-04-20T10:54:59.571Z,1007.78
2018-04-20T10:56:53.971Z,1007.76
2018-04-20T10:57:53.964Z,1007.75
2018-04-20T10:59:48.475Z,1007.71
2018-04-20T11:00:48.368Z,1007.69
2018-04-20T11:02:42.817Z,1007.68
2018-04-20T11:03:42.766Z,1007.66
2018-04-20T11:05:37.159Z,1007.65
2018-04-20T11:06:37.158Z,1007.64
2018-04-20T11:08:31.642Z,1007.59
2018-04-20T11:09:31.565Z,1007.60
2018-04-20T11:11:25.981Z,1007.57
2018-04-20T11:12:25.959Z,1007.63
2018-04-20T11:14:20.421Z,1007.60
2018-04-20T11:15:20.379Z,1007.57
2018-04-20T11:17:14.880Z,1007.56
2018-04-20T11:18:14.775Z,1007.56
2018-04-20T11:20:09.168Z,1007.51
2018-04-20T11:21:09.169Z,1007.47
2018-04-20T11:23:03.739Z,1007.50
2018-04-20T11:24:03.570Z,1007.48
2018-04-20T11:25:57.958Z,1007.46
2018-04-20T11:26:57.961Z,1007.45
2018-04-20T11:28:52.648Z,1007.39
2018-04-20T11:29:52.359Z,1007.35
2018-04-20T11:31:46.787Z,1007.34
2018-04-20T11:32:46.790Z,1007.30
2018-04-20T11:34:41.289Z,1007.30
2018-04-20T11:35:41.182Z,1007.28
2018-04-20T11:37:35.610Z,1007.23
2018-04-20T11:38:35.584Z,1007.23
2018-04-20T11:40:29.956Z,1007.22
2018-04-20T11:41:29.967Z,1007.20
2018-04-20T11:43:24.424Z,1007.19
2018-04-20T11:44:24.469Z,1007.22
2018-04-20T11:46:25.759Z,1007.15
2018-04-20T11:47:25.740Z,1007.20
2018-04-20T11:49:20.100Z,1007.19
2018-04-20T11:50:20.106Z,1007.16
2018-04-20T11:52:14.630Z,1007.12
2018-04-20T11:53:14.523Z,1007.15
2018-04-20T11:55:11.581Z,1007.11
2018-04-20T11:56:10.228Z,1007.09
2018-04-20T11:58:04.723Z,1007.01
2018-04-20T11:59:04.619Z,1006.99
2018-04-20T12:00:59.013Z,1007.01
2018-04-20T12:01:59.015Z,1006.99
2018-04-20T12:03:53.489Z,1006.95
2018-04-20T12:04:53.431Z,1006.97
2018-04-20T12:06:47.862Z,1006.96
2018-04-20T12:07:47.836Z,1006.91
2018-04-20T12:09:42.279Z,1006.87
2018-04-20T12:10:42.224Z,1006.89
2018-04-20T12:12:36.682Z,1006.87
2018-04-20T12:13:36.618Z,1006.85
2018-04-20T12:15:31.159Z,1006.85
2018-04-20T12:16:31.047Z,1006.83
2018-04-20T12:18:25.459Z,1006.83
2018-04-20T12:19:25.464Z,1006.80
2018-04-20T12:21:20.008Z,1006.81
2018-04-20T12:22:19.864Z,1006.79
2018-04-20T12:24:14.275Z,1006.77
2018-04-20T12:25:14.261Z,1006.72
2018-04-20T12:27:08.743Z,1006.68
2018-04-20T12:28:08.658Z,1006.66
2018-04-20T12:30:03.053Z,1006.64
2018-04-20T12:31:03.065Z,1006.62
2018-04-20T12:32:57.560Z,1006.61
2018-04-20T12:33:57.454Z,1006.58
2018-04-20T12:35:51.892Z,1006.58
2018-04-20T12:36:51.848Z,1006.54
2018-04-20T12:38:46.255Z,1006.47
2018-04-20T12:39:46.246Z,1006.51
2018-04-20T12:41:40.690Z,1006.48
2018-04-20T12:42:40.642Z,1006.40
2018-04-20T12:44:35.040Z,1006.35
2018-04-20T12:45:35.088Z,1006.38
2018-04-20T12:47:29.642Z,1006.33
2018-04-20T12:48:29.454Z,1006.31
2018-04-20T12:50:23.925Z,1006.28
2018-04-20T12:51:23.943Z,1006.28
2018-04-20T12:53:18.372Z,1006.24
2018-04-20T12:54:18.333Z,1006.23
2018-04-20T12:56:13.332Z,1006.21
2018-04-20T12:57:12.909Z,1006.21
2018-04-20T12:59:07.327Z,1006.17
2018-04-20T13:00:07.811Z,1006.12
2018-04-20T13:02:01.937Z,1006.11
2018-04-20T13:03:01.715Z,1006.05
2018-04-20T13:04:56.101Z,1006.06
2018-04-20T13:05:56.109Z,1006.00
2018-04-20T13:07:50.618Z,1006.01
2018-04-20T13:08:50.518Z,1006.00
2018-04-20T13:10:44.916Z,1005.98
2018-04-20T13:11:44.921Z,1005.90
2018-04-20T13:13:39.348Z,1005.90
2018-04-20T13:14:39.358Z,1005.89
2018-04-20T13:16:33.757Z,1005.91
2018-04-20T13:17:33.708Z,1005.91
2018-04-20T13:19:28.100Z,1005.86
2018-04-20T13:20:28.113Z,1005.85
2018-04-20T13:22:22.574Z,1005.82
2018-04-20T13:23:22.539Z,1005.77
2018-04-20T13:25:17.047Z,1005.73
2018-04-20T13:26:16.940Z,1005.73
2018-04-20T13:28:11.394Z,1005.72
2018-04-20T13:29:11.360Z,1005.63
2018-04-20T13:31:06.677Z,1005.60
2018-04-20T13:32:05.735Z,1005.56
2018-04-20T13:34:00.127Z,1005.54
2018-04-20T13:35:00.718Z,1005.53
2018-04-20T13:36:54.656Z,1005.51
2018-04-20T13:37:54.574Z,1005.46
2018-04-20T13:39:49.432Z,1005.44
2018-04-20T13:40:48.978Z,1005.44